Airfield :
LOGIN :

Register | Disclaimer

   EN    FR    IT 

 










Legend :    VFR   Marginal VFR   IFR   Intensive IFR   Very Intensive IFR
Visi :
Ceiling :
>= 8 km
>= 3000ft
5 to 8 km
1000 to 3000 ft
1500m to 5 km
500 to 1000 ft
800 to 1500m
200 to 500 ft
< 800m
< 200 ft
Symbols :   Thunderstorms  Fog  Heavy snow  Heavy precipitations  Wind > 20 kt
SIGMETs :     Misc.  Thunderstorms  Icing  Turbulence  Mountain Waves  Volcanic Ashes






- Airport Elevation : 357 ft
- IATA code : TUF


LFOT - Tours

CURRENT METAR :
  • 290600Z AUTO 05007KT 360V080 8000 NSC 10/05 Q1017 NOSIG

EXPIRED METARs :
  • 290530Z AUTO 04006KT 360V080 9000 NSC 10/05 Q1017 NOSIG
  • 290500Z AUTO 04005KT 360V080 CAVOK 09/05 Q1017 NOSIG
  • 290430Z AUTO 02007KT 9999 3200 NSC 09/05 Q1017 NOSIG
  • 290400Z AUTO 03005KT 360V070 CAVOK 10/05 Q1017 NOSIG
  • 290330Z AUTO 03005KT 350V070 CAVOK 09/05 Q1017 NOSIG

TAF TAF LFOT
Valid from the 29 at 06:00 until the 30 at 06:00 UTC


290500Z 2906/3006 05010KT CAVOK



MET'MAP, your aeronautical weather chart ! - Copyright ORBIFLY December 2007 - Disclaimer

ORBIFLY MET'MAP TEAM :

Programming & Development : Alexandra Zaïnal
Original concept : Baudouin d'Aumeries
Technical & hardware support : Manuel Goepfert
Assistance : Marc-Olivier Méhu

Contact : metmap@orbifly.com




SOURCES & CREDITS :

   NOAA